sensor_id;sensor_type;location;lat;lon;timestamp;temperature;humidity
62573;DHT22;48626;51.678;5.806;2022-12-11T00:01:57;2.10;99.90
62573;DHT22;48626;51.678;5.806;2022-12-11T00:04:23;2.10;99.90
62573;DHT22;48626;51.678;5.806;2022-12-11T00:06:48;2.10;99.90
62573;DHT22;48626;51.678;5.806;2022-12-11T00:09:16;2.10;99.90
62573;DHT22;48626;51.678;5.806;2022-12-11T00:11:42;2.10;99.90
62573;DHT22;48626;51.678;5.806;2022-12-11T00:14:07;2.10;99.90
62573;DHT22;48626;51.678;5.806;2022-12-11T00:16:33;2.10;99.90
62573;DHT22;48626;51.678;5.806;2022-12-11T00:18:58;2.10;99.90
62573;DHT22;48626;51.678;5.806;2022-12-11T00:21:24;2.20;99.90
62573;DHT22;48626;51.678;5.806;2022-12-11T00:23:50;2.20;99.90
62573;DHT22;48626;51.678;5.806;2022-12-11T00:26:16;2.20;99.90
62573;DHT22;48626;51.678;5.806;2022-12-11T00:28:42;2.20;99.90
62573;DHT22;48626;51.678;5.806;2022-12-11T00:31:12;2.20;99.90
62573;DHT22;48626;51.678;5.806;2022-12-11T00:33:39;2.30;99.90
62573;DHT22;48626;51.678;5.806;2022-12-11T00:36:11;2.30;99.90
62573;DHT22;48626;51.678;5.806;2022-12-11T00:38:36;2.20;99.90
62573;DHT22;48626;51.678;5.806;2022-12-11T00:41:02;2.30;99.90
62573;DHT22;48626;51.678;5.806;2022-12-11T00:43:28;2.30;99.90
62573;DHT22;48626;51.678;5.806;2022-12-11T00:45:53;2.30;99.90
62573;DHT22;48626;51.678;5.806;2022-12-11T00:48:19;2.30;99.90
62573;DHT22;48626;51.678;5.806;2022-12-11T00:50:45;2.30;99.90
62573;DHT22;48626;51.678;5.806;2022-12-11T00:53:11;2.30;99.90
62573;DHT22;48626;51.678;5.806;2022-12-11T00:55:38;2.30;99.90
62573;DHT22;48626;51.678;5.806;2022-12-11T00:58:04;2.30;99.90
62573;DHT22;48626;51.678;5.806;2022-12-11T01:00:30;2.30;99.90
62573;DHT22;48626;51.678;5.806;2022-12-11T01:02:55;2.30;99.90
62573;DHT22;48626;51.678;5.806;2022-12-11T01:05:21;2.30;99.90
62573;DHT22;48626;51.678;5.806;2022-12-11T01:07:47;2.40;99.90
62573;DHT22;48626;51.678;5.806;2022-12-11T01:10:13;2.40;99.90
62573;DHT22;48626;51.678;5.806;2022-12-11T01:12:57;2.40;99.90
62573;DHT22;48626;51.678;5.806;2022-12-11T01:15:26;2.40;99.90
62573;DHT22;48626;51.678;5.806;2022-12-11T01:17:53;2.40;99.90
62573;DHT22;48626;51.678;5.806;2022-12-11T01:20:20;2.40;99.90
62573;DHT22;48626;51.678;5.806;2022-12-11T01:22:46;2.40;99.90
62573;DHT22;48626;51.678;5.806;2022-12-11T01:25:12;2.40;99.90
62573;DHT22;48626;51.678;5.806;2022-12-11T01:27:38;2.40;99.90
62573;DHT22;48626;51.678;5.806;2022-12-11T01:30:06;2.40;99.90
62573;DHT22;48626;51.678;5.806;2022-12-11T01:32:33;2.40;99.90
62573;DHT22;48626;51.678;5.806;2022-12-11T01:34:59;2.40;99.90
62573;DHT22;48626;51.678;5.806;2022-12-11T01:37:25;2.40;99.90
62573;DHT22;48626;51.678;5.806;2022-12-11T01:39:50;2.40;99.90
62573;DHT22;48626;51.678;5.806;2022-12-11T01:42:17;2.40;99.90
62573;DHT22;48626;51.678;5.806;2022-12-11T01:47:10;2.40;99.90
62573;DHT22;48626;51.678;5.806;2022-12-11T01:49:36;2.30;99.90
62573;DHT22;48626;51.678;5.806;2022-12-11T01:52:18;2.40;99.90
62573;DHT22;48626;51.678;5.806;2022-12-11T01:54:46;2.30;99.90
62573;DHT22;48626;51.678;5.806;2022-12-11T01:57:13;2.40;99.90
62573;DHT22;48626;51.678;5.806;2022-12-11T01:59:42;2.40;99.90
62573;DHT22;48626;51.678;5.806;2022-12-11T02:02:21;2.40;99.90
62573;DHT22;48626;51.678;5.806;2022-12-11T02:04:49;2.40;99.90
62573;DHT22;48626;51.678;5.806;2022-12-11T02:07:14;2.40;99.90
62573;DHT22;48626;51.678;5.806;2022-12-11T02:09:41;2.40;99.90
62573;DHT22;48626;51.678;5.806;2022-12-11T02:12:29;2.40;99.90
62573;DHT22;48626;51.678;5.806;2022-12-11T02:17:32;2.40;99.90
62573;DHT22;48626;51.678;5.806;2022-12-11T02:20:25;2.40;99.90
62573;DHT22;48626;51.678;5.806;2022-12-11T02:26:07;2.50;99.90
62573;DHT22;48626;51.678;5.806;2022-12-11T02:28:42;2.50;99.90
62573;DHT22;48626;51.678;5.806;2022-12-11T02:36:26;2.50;99.90
62573;DHT22;48626;51.678;5.806;2022-12-11T02:38:53;2.50;99.90
62573;DHT22;48626;51.678;5.806;2022-12-11T02:41:21;2.50;99.90
62573;DHT22;48626;51.678;5.806;2022-12-11T02:43:49;2.50;99.90
62573;DHT22;48626;51.678;5.806;2022-12-11T02:46:16;2.50;99.90
62573;DHT22;48626;51.678;5.806;2022-12-11T02:48:43;2.50;99.90
62573;DHT22;48626;51.678;5.806;2022-12-11T02:51:10;2.50;99.90
62573;DHT22;48626;51.678;5.806;2022-12-11T02:53:41;2.50;99.90
62573;DHT22;48626;51.678;5.806;2022-12-11T02:56:18;2.50;99.90
62573;DHT22;48626;51.678;5.806;2022-12-11T02:58:48;2.50;99.90
62573;DHT22;48626;51.678;5.806;2022-12-11T03:01:14;2.50;99.90
62573;DHT22;48626;51.678;5.806;2022-12-11T03:03:40;2.50;99.90
62573;DHT22;48626;51.678;5.806;2022-12-11T03:06:09;2.50;99.90
62573;DHT22;48626;51.678;5.806;2022-12-11T03:08:36;2.60;99.90
62573;DHT22;48626;51.678;5.806;2022-12-11T03:11:01;2.60;99.90
62573;DHT22;48626;51.678;5.806;2022-12-11T03:13:27;2.50;99.90
62573;DHT22;48626;51.678;5.806;2022-12-11T03:16:24;2.60;99.90
62573;DHT22;48626;51.678;5.806;2022-12-11T03:21:31;2.60;99.90
62573;DHT22;48626;51.678;5.806;2022-12-11T03:24:06;2.60;99.90
62573;DHT22;48626;51.678;5.806;2022-12-11T03:26:41;2.60;99.90
62573;DHT22;48626;51.678;5.806;2022-12-11T03:29:35;2.60;99.90
62573;DHT22;48626;51.678;5.806;2022-12-11T03:32:09;2.60;99.90
62573;DHT22;48626;51.678;5.806;2022-12-11T03:34:42;2.60;99.90
62573;DHT22;48626;51.678;5.806;2022-12-11T03:37:10;2.60;99.90
62573;DHT22;48626;51.678;5.806;2022-12-11T03:39:41;2.60;99.90
62573;DHT22;48626;51.678;5.806;2022-12-11T03:42:10;2.60;99.90
62573;DHT22;48626;51.678;5.806;2022-12-11T03:44:37;2.60;99.90
62573;DHT22;48626;51.678;5.806;2022-12-11T03:47:07;2.60;99.90
62573;DHT22;48626;51.678;5.806;2022-12-11T03:49:40;2.60;99.90
62573;DHT22;48626;51.678;5.806;2022-12-11T03:52:09;2.60;99.90
62573;DHT22;48626;51.678;5.806;2022-12-11T03:54:35;2.60;99.90
62573;DHT22;48626;51.678;5.806;2022-12-11T03:57:03;2.60;99.90
62573;DHT22;48626;51.678;5.806;2022-12-11T03:59:29;2.60;99.90
62573;DHT22;48626;51.678;5.806;2022-12-11T04:01:54;2.70;99.90
62573;DHT22;48626;51.678;5.806;2022-12-11T04:04:20;2.60;99.90
62573;DHT22;48626;51.678;5.806;2022-12-11T04:06:46;2.70;99.90
62573;DHT22;48626;51.678;5.806;2022-12-11T04:09:11;2.60;99.90
62573;DHT22;48626;51.678;5.806;2022-12-11T04:11:37;2.60;99.90
62573;DHT22;48626;51.678;5.806;2022-12-11T04:14:09;2.70;99.90
62573;DHT22;48626;51.678;5.806;2022-12-11T04:16:54;2.60;99.90
62573;DHT22;48626;51.678;5.806;2022-12-11T04:19:21;2.70;99.90
62573;DHT22;48626;51.678;5.806;2022-12-11T04:22:06;2.70;99.90
62573;DHT22;48626;51.678;5.806;2022-12-11T04:24:50;2.70;99.90
62573;DHT22;48626;51.678;5.806;2022-12-11T04:27:16;2.60;99.90
62573;DHT22;48626;51.678;5.806;2022-12-11T04:30:03;2.70;99.90
62573;DHT22;48626;51.678;5.806;2022-12-11T04:32:29;2.70;99.90
62573;DHT22;48626;51.678;5.806;2022-12-11T04:34:55;2.70;99.90
62573;DHT22;48626;51.678;5.806;2022-12-11T04:37:20;2.60;99.90
62573;DHT22;48626;51.678;5.806;2022-12-11T04:39:46;2.70;99.90
62573;DHT22;48626;51.678;5.806;2022-12-11T04:42:11;2.70;99.90
62573;DHT22;48626;51.678;5.806;2022-12-11T04:44:37;2.70;99.90
62573;DHT22;48626;51.678;5.806;2022-12-11T04:47:03;2.70;99.90
62573;DHT22;48626;51.678;5.806;2022-12-11T04:49:28;2.70;99.90
62573;DHT22;48626;51.678;5.806;2022-12-11T04:51:54;2.70;99.90
62573;DHT22;48626;51.678;5.806;2022-12-11T04:54:19;2.70;99.90
62573;DHT22;48626;51.678;5.806;2022-12-11T04:56:45;2.70;99.90
62573;DHT22;48626;51.678;5.806;2022-12-11T04:59:11;2.70;99.90
62573;DHT22;48626;51.678;5.806;2022-12-11T05:01:36;2.70;99.90
62573;DHT22;48626;51.678;5.806;2022-12-11T05:04:02;2.70;99.90
62573;DHT22;48626;51.678;5.806;2022-12-11T05:06:27;2.70;99.90
62573;DHT22;48626;51.678;5.806;2022-12-11T05:08:53;2.70;99.90
62573;DHT22;48626;51.678;5.806;2022-12-11T05:11:19;2.70;99.90
62573;DHT22;48626;51.678;5.806;2022-12-11T05:13:44;2.70;99.90
62573;DHT22;48626;51.678;5.806;2022-12-11T05:16:13;2.70;99.90
62573;DHT22;48626;51.678;5.806;2022-12-11T05:18:39;2.60;99.90
62573;DHT22;48626;51.678;5.806;2022-12-11T05:21:07;2.70;99.90
62573;DHT22;48626;51.678;5.806;2022-12-11T05:23:34;2.70;99.90
62573;DHT22;48626;51.678;5.806;2022-12-11T05:26:02;2.70;99.90
62573;DHT22;48626;51.678;5.806;2022-12-11T05:28:32;2.70;99.90
62573;DHT22;48626;51.678;5.806;2022-12-11T05:31:03;2.60;99.90
62573;DHT22;48626;51.678;5.806;2022-12-11T05:33:29;2.60;99.90
62573;DHT22;48626;51.678;5.806;2022-12-11T05:35:55;2.60;99.90
62573;DHT22;48626;51.678;5.806;2022-12-11T05:38:21;2.60;99.90
62573;DHT22;48626;51.678;5.806;2022-12-11T05:41:01;2.60;99.90
62573;DHT22;48626;51.678;5.806;2022-12-11T05:43:28;2.60;99.90
62573;DHT22;48626;51.678;5.806;2022-12-11T05:45:55;2.60;99.90
62573;DHT22;48626;51.678;5.806;2022-12-11T05:48:21;2.70;99.90
62573;DHT22;48626;51.678;5.806;2022-12-11T05:50:57;2.70;99.90
62573;DHT22;48626;51.678;5.806;2022-12-11T05:53:23;2.70;99.90
62573;DHT22;48626;51.678;5.806;2022-12-11T05:55:49;2.70;99.90
62573;DHT22;48626;51.678;5.806;2022-12-11T05:58:15;2.70;99.90
62573;DHT22;48626;51.678;5.806;2022-12-11T06:00:41;2.70;99.90
62573;DHT22;48626;51.678;5.806;2022-12-11T06:03:07;2.70;99.90
62573;DHT22;48626;51.678;5.806;2022-12-11T06:05:40;2.70;99.90
62573;DHT22;48626;51.678;5.806;2022-12-11T06:08:06;2.80;99.90
62573;DHT22;48626;51.678;5.806;2022-12-11T06:10:32;2.70;99.90
62573;DHT22;48626;51.678;5.806;2022-12-11T06:12:58;2.70;99.90
62573;DHT22;48626;51.678;5.806;2022-12-11T06:15:24;2.70;99.90
62573;DHT22;48626;51.678;5.806;2022-12-11T06:17:50;2.70;99.90
62573;DHT22;48626;51.678;5.806;2022-12-11T06:20:15;2.70;99.90
62573;DHT22;48626;51.678;5.806;2022-12-11T06:22:41;2.70;99.90
62573;DHT22;48626;51.678;5.806;2022-12-11T06:25:07;2.70;99.90
62573;DHT22;48626;51.678;5.806;2022-12-11T06:27:32;2.70;99.90
62573;DHT22;48626;51.678;5.806;2022-12-11T06:29:58;2.70;99.90
62573;DHT22;48626;51.678;5.806;2022-12-11T06:32:24;2.60;99.90
62573;DHT22;48626;51.678;5.806;2022-12-11T06:34:49;2.60;99.90
62573;DHT22;48626;51.678;5.806;2022-12-11T06:37:15;2.70;99.90
62573;DHT22;48626;51.678;5.806;2022-12-11T06:39:40;2.60;99.90
62573;DHT22;48626;51.678;5.806;2022-12-11T06:42:06;2.70;99.90
62573;DHT22;48626;51.678;5.806;2022-12-11T06:44:31;2.70;99.90
62573;DHT22;48626;51.678;5.806;2022-12-11T06:46:57;2.70;99.90
62573;DHT22;48626;51.678;5.806;2022-12-11T06:49:23;2.70;99.90
62573;DHT22;48626;51.678;5.806;2022-12-11T06:51:48;2.70;99.90
62573;DHT22;48626;51.678;5.806;2022-12-11T06:54:14;2.70;99.90
62573;DHT22;48626;51.678;5.806;2022-12-11T06:56:39;2.70;99.90
62573;DHT22;48626;51.678;5.806;2022-12-11T06:59:05;2.70;99.90
62573;DHT22;48626;51.678;5.806;2022-12-11T07:01:31;2.70;99.90
62573;DHT22;48626;51.678;5.806;2022-12-11T07:03:58;2.60;99.90
62573;DHT22;48626;51.678;5.806;2022-12-11T07:06:26;2.70;99.90
62573;DHT22;48626;51.678;5.806;2022-12-11T07:08:53;2.70;99.90
62573;DHT22;48626;51.678;5.806;2022-12-11T07:11:19;2.60;99.90
62573;DHT22;48626;51.678;5.806;2022-12-11T07:13:45;2.70;99.90
62573;DHT22;48626;51.678;5.806;2022-12-11T07:16:12;2.60;99.90
62573;DHT22;48626;51.678;5.806;2022-12-11T07:18:39;2.60;99.90
62573;DHT22;48626;51.678;5.806;2022-12-11T07:21:06;2.60;99.90
62573;DHT22;48626;51.678;5.806;2022-12-11T07:23:33;2.60;99.90
62573;DHT22;48626;51.678;5.806;2022-12-11T07:26:06;2.60;99.90
62573;DHT22;48626;51.678;5.806;2022-12-11T07:28:33;2.60;99.90
62573;DHT22;48626;51.678;5.806;2022-12-11T07:31:03;2.70;99.90
62573;DHT22;48626;51.678;5.806;2022-12-11T07:33:28;2.60;99.90
62573;DHT22;48626;51.678;5.806;2022-12-11T07:35:54;2.60;99.90
62573;DHT22;48626;51.678;5.806;2022-12-11T07:38:20;2.70;99.90
62573;DHT22;48626;51.678;5.806;2022-12-11T07:40:45;2.70;99.90
62573;DHT22;48626;51.678;5.806;2022-12-11T07:43:11;2.60;99.90
62573;DHT22;48626;51.678;5.806;2022-12-11T07:45:37;2.70;99.90
62573;DHT22;48626;51.678;5.806;2022-12-11T07:48:02;2.70;99.90
62573;DHT22;48626;51.678;5.806;2022-12-11T07:50:28;2.70;99.90
62573;DHT22;48626;51.678;5.806;2022-12-11T07:52:54;2.70;99.90
62573;DHT22;48626;51.678;5.806;2022-12-11T07:55:19;2.70;99.90
62573;DHT22;48626;51.678;5.806;2022-12-11T07:57:45;2.70;99.90
62573;DHT22;48626;51.678;5.806;2022-12-11T08:00:11;2.70;99.90
62573;DHT22;48626;51.678;5.806;2022-12-11T08:02:36;2.70;99.90
62573;DHT22;48626;51.678;5.806;2022-12-11T08:05:02;2.70;99.90
62573;DHT22;48626;51.678;5.806;2022-12-11T08:07:28;2.70;99.90
62573;DHT22;48626;51.678;5.806;2022-12-11T08:09:53;2.70;99.90
62573;DHT22;48626;51.678;5.806;2022-12-11T08:12:19;2.70;99.90
62573;DHT22;48626;51.678;5.806;2022-12-11T08:14:45;2.70;99.90
62573;DHT22;48626;51.678;5.806;2022-12-11T08:17:10;2.70;99.90
62573;DHT22;48626;51.678;5.806;2022-12-11T08:19:36;2.70;99.90
62573;DHT22;48626;51.678;5.806;2022-12-11T08:22:02;2.70;99.90
62573;DHT22;48626;51.678;5.806;2022-12-11T08:24:27;2.80;99.90
62573;DHT22;48626;51.678;5.806;2022-12-11T08:26:53;2.80;99.90
62573;DHT22;48626;51.678;5.806;2022-12-11T08:29:18;2.80;99.90
62573;DHT22;48626;51.678;5.806;2022-12-11T08:31:44;2.80;99.90
62573;DHT22;48626;51.678;5.806;2022-12-11T08:34:10;2.80;99.90
62573;DHT22;48626;51.678;5.806;2022-12-11T08:36:38;2.70;99.90
62573;DHT22;48626;51.678;5.806;2022-12-11T08:39:04;2.80;99.90
62573;DHT22;48626;51.678;5.806;2022-12-11T08:41:30;2.80;99.90
62573;DHT22;48626;51.678;5.806;2022-12-11T08:43:56;2.80;99.90
62573;DHT22;48626;51.678;5.806;2022-12-11T08:46:25;2.80;99.90
62573;DHT22;48626;51.678;5.806;2022-12-11T08:48:51;2.80;99.90
62573;DHT22;48626;51.678;5.806;2022-12-11T08:51:23;2.90;99.90
62573;DHT22;48626;51.678;5.806;2022-12-11T08:53:49;2.80;99.90
62573;DHT22;48626;51.678;5.806;2022-12-11T08:56:18;2.80;99.90
62573;DHT22;48626;51.678;5.806;2022-12-11T08:58:45;2.80;99.90
62573;DHT22;48626;51.678;5.806;2022-12-11T09:01:13;2.70;99.90
62573;DHT22;48626;51.678;5.806;2022-12-11T09:03:39;2.80;99.90
62573;DHT22;48626;51.678;5.806;2022-12-11T09:06:07;2.80;99.90
62573;DHT22;48626;51.678;5.806;2022-12-11T09:08:33;2.80;99.90
62573;DHT22;48626;51.678;5.806;2022-12-11T09:11:11;2.90;99.90
62573;DHT22;48626;51.678;5.806;2022-12-11T09:13:38;2.90;99.90
62573;DHT22;48626;51.678;5.806;2022-12-11T09:16:11;2.90;99.90
62573;DHT22;48626;51.678;5.806;2022-12-11T09:18:37;3.00;99.90
62573;DHT22;48626;51.678;5.806;2022-12-11T09:21:08;2.90;99.90
62573;DHT22;48626;51.678;5.806;2022-12-11T09:23:35;3.00;99.90
62573;DHT22;48626;51.678;5.806;2022-12-11T09:26:05;3.00;99.90
62573;DHT22;48626;51.678;5.806;2022-12-11T09:28:31;3.00;99.90
62573;DHT22;48626;51.678;5.806;2022-12-11T09:30:57;3.00;99.90
62573;DHT22;48626;51.678;5.806;2022-12-11T09:33:23;3.00;99.90
62573;DHT22;48626;51.678;5.806;2022-12-11T09:35:59;3.00;99.90
62573;DHT22;48626;51.678;5.806;2022-12-11T09:38:25;3.10;99.90
62573;DHT22;48626;51.678;5.806;2022-12-11T09:40:50;3.10;99.90
62573;DHT22;48626;51.678;5.806;2022-12-11T09:46:09;3.10;99.90
62573;DHT22;48626;51.678;5.806;2022-12-11T09:48:38;3.10;99.90
62573;DHT22;48626;51.678;5.806;2022-12-11T09:51:41;3.00;99.90
62573;DHT22;48626;51.678;5.806;2022-12-11T09:54:10;3.10;99.90
62573;DHT22;48626;51.678;5.806;2022-12-11T09:56:41;3.10;99.90
62573;DHT22;48626;51.678;5.806;2022-12-11T10:02:29;3.10;99.90
62573;DHT22;48626;51.678;5.806;2022-12-11T10:07:37;3.00;99.90
62573;DHT22;48626;51.678;5.806;2022-12-11T10:10:11;3.00;99.90
62573;DHT22;48626;51.678;5.806;2022-12-11T10:12:55;3.00;99.90
62573;DHT22;48626;51.678;5.806;2022-12-11T10:15:34;3.00;99.90
62573;DHT22;48626;51.678;5.806;2022-12-11T10:18:03;3.00;99.90
62573;DHT22;48626;51.678;5.806;2022-12-11T10:20:33;2.90;99.90
62573;DHT22;48626;51.678;5.806;2022-12-11T10:23:06;3.00;99.90
62573;DHT22;48626;51.678;5.806;2022-12-11T10:25:56;3.00;99.90
62573;DHT22;48626;51.678;5.806;2022-12-11T10:28:26;3.00;99.90
62573;DHT22;48626;51.678;5.806;2022-12-11T10:36:29;3.00;99.90
62573;DHT22;48626;51.678;5.806;2022-12-11T10:38:56;3.00;99.90
62573;DHT22;48626;51.678;5.806;2022-12-11T10:41:25;3.00;99.90
62573;DHT22;48626;51.678;5.806;2022-12-11T10:43:53;3.00;99.90
62573;DHT22;48626;51.678;5.806;2022-12-11T10:46:24;3.00;99.90
62573;DHT22;48626;51.678;5.806;2022-12-11T10:48:52;3.00;99.90
62573;DHT22;48626;51.678;5.806;2022-12-11T10:51:34;3.00;99.90
62573;DHT22;48626;51.678;5.806;2022-12-11T10:54:07;3.00;99.90
62573;DHT22;48626;51.678;5.806;2022-12-11T10:56:44;3.00;99.90
62573;DHT22;48626;51.678;5.806;2022-12-11T11:01:53;3.00;99.90
62573;DHT22;48626;51.678;5.806;2022-12-11T11:04:32;3.10;99.90
62573;DHT22;48626;51.678;5.806;2022-12-11T11:07:03;3.20;99.90
62573;DHT22;48626;51.678;5.806;2022-12-11T11:09:36;3.10;99.90
62573;DHT22;48626;51.678;5.806;2022-12-11T11:12:02;3.10;99.90
62573;DHT22;48626;51.678;5.806;2022-12-11T11:14:28;3.20;99.90
62573;DHT22;48626;51.678;5.806;2022-12-11T11:16:57;3.20;99.90
62573;DHT22;48626;51.678;5.806;2022-12-11T11:19:32;3.30;99.90
62573;DHT22;48626;51.678;5.806;2022-12-11T11:22:13;3.30;99.90
62573;DHT22;48626;51.678;5.806;2022-12-11T11:24:42;3.30;99.90
62573;DHT22;48626;51.678;5.806;2022-12-11T11:27:43;3.20;99.90
62573;DHT22;48626;51.678;5.806;2022-12-11T11:30:31;3.20;99.90
62573;DHT22;48626;51.678;5.806;2022-12-11T11:33:04;3.20;99.90
62573;DHT22;48626;51.678;5.806;2022-12-11T11:35:31;3.20;99.90
62573;DHT22;48626;51.678;5.806;2022-12-11T11:38:03;3.10;99.90
62573;DHT22;48626;51.678;5.806;2022-12-11T11:40:33;3.10;99.90
62573;DHT22;48626;51.678;5.806;2022-12-11T11:45:58;3.10;99.90
62573;DHT22;48626;51.678;5.806;2022-12-11T11:50:55;3.20;99.90
62573;DHT22;48626;51.678;5.806;2022-12-11T11:53:29;3.20;99.90
62573;DHT22;48626;51.678;5.806;2022-12-11T11:56:16;3.20;99.90
62573;DHT22;48626;51.678;5.806;2022-12-11T12:01:33;3.20;99.90
62573;DHT22;48626;51.678;5.806;2022-12-11T12:04:01;3.20;99.90
62573;DHT22;48626;51.678;5.806;2022-12-11T12:12:14;3.10;99.90
62573;DHT22;48626;51.678;5.806;2022-12-11T12:17:27;3.20;99.90
62573;DHT22;48626;51.678;5.806;2022-12-11T12:25:51;3.20;99.90
62573;DHT22;48626;51.678;5.806;2022-12-11T12:28:53;3.20;99.90
62573;DHT22;48626;51.678;5.806;2022-12-11T12:39:52;3.20;99.90
62573;DHT22;48626;51.678;5.806;2022-12-11T12:47:41;3.30;99.90
62573;DHT22;48626;51.678;5.806;2022-12-11T12:50:12;3.30;99.90
62573;DHT22;48626;51.678;5.806;2022-12-11T12:52:39;3.30;99.90
62573;DHT22;48626;51.678;5.806;2022-12-11T12:57:58;3.40;99.90
62573;DHT22;48626;51.678;5.806;2022-12-11T13:00:39;3.40;99.90
62573;DHT22;48626;51.678;5.806;2022-12-11T13:03:23;3.50;99.90
62573;DHT22;48626;51.678;5.806;2022-12-11T13:06:03;3.40;99.90
62573;DHT22;48626;51.678;5.806;2022-12-11T13:08:41;3.40;99.90
62573;DHT22;48626;51.678;5.806;2022-12-11T13:11:09;3.40;99.90
62573;DHT22;48626;51.678;5.806;2022-12-11T13:13:41;3.40;99.90
62573;DHT22;48626;51.678;5.806;2022-12-11T13:18:43;3.40;99.90
62573;DHT22;48626;51.678;5.806;2022-12-11T13:21:36;3.40;99.90
62573;DHT22;48626;51.678;5.806;2022-12-11T13:26:47;3.40;99.90
62573;DHT22;48626;51.678;5.806;2022-12-11T13:34:36;3.40;99.90
62573;DHT22;48626;51.678;5.806;2022-12-11T13:37:04;3.30;99.90
62573;DHT22;48626;51.678;5.806;2022-12-11T13:39:33;3.40;99.90
62573;DHT22;48626;51.678;5.806;2022-12-11T13:42:22;3.30;99.90
62573;DHT22;48626;51.678;5.806;2022-12-11T13:44:50;3.30;99.90
62573;DHT22;48626;51.678;5.806;2022-12-11T13:47:17;3.30;99.90
62573;DHT22;48626;51.678;5.806;2022-12-11T13:49:48;3.30;99.90
62573;DHT22;48626;51.678;5.806;2022-12-11T13:52:20;3.40;99.90
62573;DHT22;48626;51.678;5.806;2022-12-11T13:54:52;3.40;99.90
62573;DHT22;48626;51.678;5.806;2022-12-11T13:57:20;3.30;99.90
62573;DHT22;48626;51.678;5.806;2022-12-11T13:59:50;3.30;99.90
62573;DHT22;48626;51.678;5.806;2022-12-11T14:02:45;3.30;99.90
62573;DHT22;48626;51.678;5.806;2022-12-11T14:05:11;3.30;99.90
62573;DHT22;48626;51.678;5.806;2022-12-11T14:07:47;3.30;99.90
62573;DHT22;48626;51.678;5.806;2022-12-11T14:12:43;3.40;99.90
62573;DHT22;48626;51.678;5.806;2022-12-11T14:15:14;3.40;99.90
62573;DHT22;48626;51.678;5.806;2022-12-11T14:17:41;3.40;99.90
62573;DHT22;48626;51.678;5.806;2022-12-11T14:20:23;3.40;99.90
62573;DHT22;48626;51.678;5.806;2022-12-11T14:22:49;3.30;99.90
62573;DHT22;48626;51.678;5.806;2022-12-11T14:25:24;3.30;99.90
62573;DHT22;48626;51.678;5.806;2022-12-11T14:27:53;3.30;99.90
62573;DHT22;48626;51.678;5.806;2022-12-11T14:30:26;3.30;99.90
62573;DHT22;48626;51.678;5.806;2022-12-11T14:32:56;3.30;99.90
62573;DHT22;48626;51.678;5.806;2022-12-11T14:35:26;3.20;99.90
62573;DHT22;48626;51.678;5.806;2022-12-11T14:37:53;3.20;99.90
62573;DHT22;48626;51.678;5.806;2022-12-11T14:40:23;3.20;99.90
62573;DHT22;48626;51.678;5.806;2022-12-11T14:42:58;3.20;99.90
62573;DHT22;48626;51.678;5.806;2022-12-11T14:45:43;3.20;99.90
62573;DHT22;48626;51.678;5.806;2022-12-11T14:48:20;3.20;99.90
62573;DHT22;48626;51.678;5.806;2022-12-11T14:50:51;3.10;99.90
62573;DHT22;48626;51.678;5.806;2022-12-11T14:53:24;3.10;99.90
62573;DHT22;48626;51.678;5.806;2022-12-11T14:55:51;3.00;99.90
62573;DHT22;48626;51.678;5.806;2022-12-11T14:58:22;3.00;99.90
62573;DHT22;48626;51.678;5.806;2022-12-11T15:01:00;3.00;99.90
62573;DHT22;48626;51.678;5.806;2022-12-11T15:03:35;3.00;99.90
62573;DHT22;48626;51.678;5.806;2022-12-11T15:06:02;3.00;99.90
62573;DHT22;48626;51.678;5.806;2022-12-11T15:08:42;3.00;99.90
62573;DHT22;48626;51.678;5.806;2022-12-11T15:11:14;2.90;99.90
62573;DHT22;48626;51.678;5.806;2022-12-11T15:13:56;2.90;99.90
62573;DHT22;48626;51.678;5.806;2022-12-11T15:16:25;2.90;99.90
62573;DHT22;48626;51.678;5.806;2022-12-11T15:18:53;2.90;99.90
62573;DHT22;48626;51.678;5.806;2022-12-11T15:21:31;2.90;99.90
62573;DHT22;48626;51.678;5.806;2022-12-11T15:24:00;2.90;99.90
62573;DHT22;48626;51.678;5.806;2022-12-11T15:26:36;2.90;99.90
62573;DHT22;48626;51.678;5.806;2022-12-11T15:29:05;2.90;99.90
62573;DHT22;48626;51.678;5.806;2022-12-11T15:31:44;2.90;99.90
62573;DHT22;48626;51.678;5.806;2022-12-11T15:34:21;2.90;99.90
62573;DHT22;48626;51.678;5.806;2022-12-11T15:36:47;2.90;99.90
62573;DHT22;48626;51.678;5.806;2022-12-11T15:39:12;2.90;99.90
62573;DHT22;48626;51.678;5.806;2022-12-11T15:41:41;2.90;99.90
62573;DHT22;48626;51.678;5.806;2022-12-11T15:44:18;2.90;99.90
62573;DHT22;48626;51.678;5.806;2022-12-11T15:46:45;2.90;99.90
62573;DHT22;48626;51.678;5.806;2022-12-11T15:49:11;2.80;99.90
62573;DHT22;48626;51.678;5.806;2022-12-11T15:51:37;2.70;99.90
62573;DHT22;48626;51.678;5.806;2022-12-11T15:54:03;2.70;99.90
62573;DHT22;48626;51.678;5.806;2022-12-11T15:56:29;2.70;99.90
62573;DHT22;48626;51.678;5.806;2022-12-11T15:58:56;2.70;99.90
62573;DHT22;48626;51.678;5.806;2022-12-11T16:01:24;2.70;99.90
62573;DHT22;48626;51.678;5.806;2022-12-11T16:03:49;2.70;99.90
62573;DHT22;48626;51.678;5.806;2022-12-11T16:06:15;2.70;99.90
62573;DHT22;48626;51.678;5.806;2022-12-11T16:08:40;2.70;99.90
62573;DHT22;48626;51.678;5.806;2022-12-11T16:11:06;2.60;99.90
62573;DHT22;48626;51.678;5.806;2022-12-11T16:13:31;2.70;99.90
62573;DHT22;48626;51.678;5.806;2022-12-11T16:15:57;2.70;99.90
62573;DHT22;48626;51.678;5.806;2022-12-11T16:18:23;2.70;99.90
62573;DHT22;48626;51.678;5.806;2022-12-11T16:20:50;2.70;99.90
62573;DHT22;48626;51.678;5.806;2022-12-11T16:23:16;2.70;99.90
62573;DHT22;48626;51.678;5.806;2022-12-11T16:25:43;2.60;99.90
62573;DHT22;48626;51.678;5.806;2022-12-11T16:28:11;2.70;99.90
62573;DHT22;48626;51.678;5.806;2022-12-11T16:30:37;2.70;99.90
62573;DHT22;48626;51.678;5.806;2022-12-11T16:33:04;2.70;99.90
62573;DHT22;48626;51.678;5.806;2022-12-11T16:35:31;2.70;99.90
62573;DHT22;48626;51.678;5.806;2022-12-11T16:37:57;2.70;99.90
62573;DHT22;48626;51.678;5.806;2022-12-11T16:40:23;2.80;99.90
62573;DHT22;48626;51.678;5.806;2022-12-11T16:42:49;2.70;99.90
62573;DHT22;48626;51.678;5.806;2022-12-11T16:45:21;2.70;99.90
62573;DHT22;48626;51.678;5.806;2022-12-11T16:47:47;2.80;99.90
62573;DHT22;48626;51.678;5.806;2022-12-11T16:50:14;2.70;99.90
62573;DHT22;48626;51.678;5.806;2022-12-11T16:52:40;2.80;99.90
62573;DHT22;48626;51.678;5.806;2022-12-11T16:55:07;2.70;99.90
62573;DHT22;48626;51.678;5.806;2022-12-11T16:57:34;2.70;99.90
62573;DHT22;48626;51.678;5.806;2022-12-11T17:00:00;2.70;99.90
62573;DHT22;48626;51.678;5.806;2022-12-11T17:02:26;2.70;99.90
62573;DHT22;48626;51.678;5.806;2022-12-11T17:04:51;2.70;99.90
62573;DHT22;48626;51.678;5.806;2022-12-11T17:07:17;2.70;99.90
62573;DHT22;48626;51.678;5.806;2022-12-11T17:09:44;2.70;99.90
62573;DHT22;48626;51.678;5.806;2022-12-11T17:12:09;2.70;99.90
62573;DHT22;48626;51.678;5.806;2022-12-11T17:14:35;2.60;99.90
62573;DHT22;48626;51.678;5.806;2022-12-11T17:17:01;2.60;99.90
62573;DHT22;48626;51.678;5.806;2022-12-11T17:19:27;2.70;99.90
62573;DHT22;48626;51.678;5.806;2022-12-11T17:21:53;2.60;99.90
62573;DHT22;48626;51.678;5.806;2022-12-11T17:24:20;2.70;99.90